Time;durP1;ratioP1;P1;durP2;ratioP2;P2;SDS_P1;SDS_P2;PMS_P1;PMS_P2;Temp;Humidity;BMP_temperature;BMP_pressure;BME280_temperature;BME280_humidity;BME280_pressure;Samples;Min_cycle;Max_cycle;Signal;HPM_P1;HPM_P2
2024/01/29 00:01:38;;;;;;;58.50;35.78;;;;;;;;;;785547;177;1020055;-66
2024/01/29 00:04:04;;;;;;;46.40;33.00;;;;;;;;;;777738;177;919234;-62
2024/01/29 00:06:30;;;;;;;60.63;34.65;;;;;;;;;;783244;177;919617;-68
2024/01/29 00:08:56;;;;;;;55.07;32.97;;;;;;;;;;785100;177;817491;-67
2024/01/29 00:11:21;;;;;;;60.57;35.17;;;;;;;;;;782927;177;919873;-62
2024/01/29 00:13:47;;;;;;;53.63;34.37;;;;;;;;;;777185;178;918978;-66
2024/01/29 00:16:13;;;;;;;56.63;32.63;;;;;;;;;;782431;177;961818;-67
2024/01/29 00:18:39;;;;;;;50.20;33.33;;;;;;;;;;778811;178;866056;-67
2024/01/29 00:21:05;;;;;;;50.93;34.63;;;;;;;;;;776464;178;885542;-61
2024/01/29 00:23:31;;;;;;;53.90;35.20;;;;;;;;;;780850;178;916633;-66
2024/01/29 00:25:56;;;;;;;47.07;32.87;;;;;;;;;;779672;179;914815;-61
2024/01/29 00:28:22;;;;;;;51.07;34.20;;;;;;;;;;786577;176;821052;-67
2024/01/29 00:30:48;;;;;;;53.27;32.00;;;;;;;;;;778543;179;912149;-63
2024/01/29 00:33:14;;;;;;;57.53;33.67;;;;;;;;;;781021;178;914175;-67
2024/01/29 00:35:40;;;;;;;50.50;30.23;;;;;;;;;;777216;178;914034;-61
2024/01/29 00:38:06;;;;;;;50.23;30.50;;;;;;;;;;779723;176;913713;-62
2024/01/29 00:40:33;;;;;;;52.80;33.07;;;;;;;;;;781877;178;907849;-62
2024/01/29 00:42:57;;;;;;;51.67;31.10;;;;;;;;;;781164;178;809512;-63
2024/01/29 00:45:23;;;;;;;54.27;31.60;;;;;;;;;;779106;178;911457;-67
2024/01/29 00:47:49;;;;;;;46.70;32.55;;;;;;;;;;781837;175;919225;-62
2024/01/29 00:50:15;;;;;;;48.87;30.13;;;;;;;;;;779048;177;914921;-62
2024/01/29 00:52:41;;;;;;;52.73;33.53;;;;;;;;;;781803;177;912925;-62
2024/01/29 00:55:07;;;;;;;52.70;29.77;;;;;;;;;;788942;177;930591;-62
2024/01/29 00:57:33;;;;;;;56.57;33.67;;;;;;;;;;784622;177;915448;-63
2024/01/29 00:59:59;;;;;;;49.53;30.50;;;;;;;;;;779988;177;920236;-63
2024/01/29 01:02:25;;;;;;;48.40;29.70;;;;;;;;;;776523;178;916089;-62
2024/01/29 01:04:50;;;;;;;48.60;29.87;;;;;;;;;;785558;177;920522;-67
2024/01/29 01:07:16;;;;;;;44.30;29.53;;;;;;;;;;779898;177;919394;-63
2024/01/29 01:09:42;;;;;;;48.43;30.00;;;;;;;;;;781601;177;817409;-67
2024/01/29 01:12:08;;;;;;;46.80;30.37;;;;;;;;;;784768;177;938638;-68
2024/01/29 01:14:34;;;;;;;61.83;32.67;;;;;;;;;;775487;177;920325;-63
2024/01/29 01:17:00;;;;;;;57.00;28.67;;;;;;;;;;781861;177;916130;-63
2024/01/29 01:19:25;;;;;;;48.90;29.30;;;;;;;;;;782403;178;1020690;-64
2024/01/29 01:21:51;;;;;;;50.60;30.30;;;;;;;;;;782615;179;916576;-69
2024/01/29 01:24:17;;;;;;;48.60;30.43;;;;;;;;;;775510;178;942379;-62
2024/01/29 01:26:43;;;;;;;48.00;26.30;;;;;;;;;;778156;178;918397;-67
2024/01/29 01:29:09;;;;;;;53.50;27.97;;;;;;;;;;787813;178;914632;-63
2024/01/29 01:31:35;;;;;;;47.03;29.12;;;;;;;;;;780719;177;940323;-63
2024/01/29 01:34:01;;;;;;;43.90;27.43;;;;;;;;;;774646;178;916761;-67
2024/01/29 01:36:27;;;;;;;39.63;26.13;;;;;;;;;;786691;178;838965;-68
2024/01/29 01:38:53;;;;;;;42.90;27.80;;;;;;;;;;780362;178;912406;-63
2024/01/29 01:41:19;;;;;;;51.70;27.93;;;;;;;;;;779972;178;916739;-67
2024/01/29 01:43:45;;;;;;;41.53;27.00;;;;;;;;;;785021;178;919005;-63
2024/01/29 01:46:22;;;;;;;42.13;26.40;;;;;;;;;;780011;178;919862;-64
2024/01/29 01:48:51;;;;;;;36.67;26.35;;;;;;;;;;775407;178;916321;-65
2024/01/29 01:51:17;;;;;;;41.90;24.87;;;;;;;;;;777622;177;914097;-69
2024/01/29 01:53:43;;;;;;;38.47;25.30;;;;;;;;;;776712;176;910862;-65
2024/01/29 01:56:09;;;;;;;43.20;24.37;;;;;;;;;;779651;177;918835;-64
2024/01/29 01:58:34;;;;;;;40.97;24.77;;;;;;;;;;780010;179;818202;-63
2024/01/29 02:01:00;;;;;;;36.50;24.70;;;;;;;;;;776720;178;917783;-64
2024/01/29 02:03:26;;;;;;;40.33;22.83;;;;;;;;;;787835;177;918422;-69
2024/01/29 02:05:52;;;;;;;38.40;25.05;;;;;;;;;;780824;178;914417;-64
2024/01/29 02:08:18;;;;;;;39.17;23.43;;;;;;;;;;778033;178;918610;-69
2024/01/29 02:10:44;;;;;;;39.97;24.87;;;;;;;;;;780156;178;872426;-64
2024/01/29 02:13:13;;;;;;;38.50;23.90;;;;;;;;;;782769;177;883010;-65
2024/01/29 02:15:39;;;;;;;41.20;23.23;;;;;;;;;;779711;178;919563;-64
2024/01/29 02:18:05;;;;;;;38.57;23.13;;;;;;;;;;773154;180;918053;-68
2024/01/29 02:20:32;;;;;;;36.03;22.23;;;;;;;;;;787731;177;919293;-69
2024/01/29 02:22:58;;;;;;;43.63;22.73;;;;;;;;;;778424;177;920653;-64
2024/01/29 02:25:23;;;;;;;34.70;22.75;;;;;;;;;;782276;177;817187;-64
2024/01/29 02:27:49;;;;;;;36.40;23.70;;;;;;;;;;783227;179;916528;-64
2024/01/29 02:30:15;;;;;;;34.83;21.40;;;;;;;;;;780744;178;916344;-64
2024/01/29 02:32:41;;;;;;;38.57;22.80;;;;;;;;;;782380;177;919282;-65
2024/01/29 02:35:07;;;;;;;34.33;21.90;;;;;;;;;;788396;177;919111;-69
2024/01/29 02:37:33;;;;;;;39.73;23.17;;;;;;;;;;781744;177;917082;-69
2024/01/29 02:39:59;;;;;;;36.73;23.13;;;;;;;;;;780998;177;879238;-69
2024/01/29 02:42:25;;;;;;;41.70;22.03;;;;;;;;;;779054;178;919279;-65
2024/01/29 02:44:50;;;;;;;40.40;20.57;;;;;;;;;;781437;179;815620;-69
2024/01/29 02:47:16;;;;;;;39.43;21.63;;;;;;;;;;783923;177;918384;-70
2024/01/29 02:49:44;;;;;;;42.00;22.17;;;;;;;;;;775328;179;918712;-64
2024/01/29 02:52:10;;;;;;;31.80;19.57;;;;;;;;;;783588;178;920461;-69
2024/01/29 02:54:36;;;;;;;36.65;20.50;;;;;;;;;;781265;178;817613;-69
2024/01/29 02:57:02;;;;;;;44.50;21.73;;;;;;;;;;780118;178;921765;-68
2024/01/29 02:59:28;;;;;;;32.60;19.30;;;;;;;;;;786446;177;917035;-63
2024/01/29 03:01:54;;;;;;;35.50;20.83;;;;;;;;;;784738;177;816332;-64
2024/01/29 03:04:19;;;;;;;37.00;21.00;;;;;;;;;;778881;177;917541;-65
2024/01/29 03:06:45;;;;;;;37.33;20.27;;;;;;;;;;781508;178;917268;-68
2024/01/29 03:09:11;;;;;;;39.40;20.30;;;;;;;;;;782253;180;810868;-68
2024/01/29 03:11:37;;;;;;;35.20;21.67;;;;;;;;;;771958;179;918816;-63
2024/01/29 03:14:03;;;;;;;34.23;20.97;;;;;;;;;;768948;180;920553;-69
2024/01/29 03:16:29;;;;;;;36.67;21.00;;;;;;;;;;782550;177;816972;-69
2024/01/29 03:18:54;;;;;;;32.80;19.37;;;;;;;;;;782167;178;919052;-69
2024/01/29 03:21:20;;;;;;;35.47;20.55;;;;;;;;;;785718;175;919835;-63
2024/01/29 03:23:46;;;;;;;30.57;19.43;;;;;;;;;;791923;174;919715;-63
2024/01/29 03:26:12;;;;;;;30.67;18.30;;;;;;;;;;783050;178;919010;-64
2024/01/29 03:28:38;;;;;;;32.43;20.23;;;;;;;;;;782665;177;924544;-69
2024/01/29 03:31:04;;;;;;;37.42;19.67;;;;;;;;;;788113;176;918506;-65
2024/01/29 03:33:30;;;;;;;33.20;22.70;;;;;;;;;;777286;177;849743;-64
2024/01/29 03:35:55;;;;;;;34.83;20.83;;;;;;;;;;786283;177;924227;-64
2024/01/29 03:38:21;;;;;;;46.93;23.90;;;;;;;;;;781822;177;917184;-65
2024/01/29 03:40:47;;;;;;;39.42;21.00;;;;;;;;;;784985;177;918333;-64
2024/01/29 03:43:13;;;;;;;33.60;19.70;;;;;;;;;;780583;178;918861;-65
2024/01/29 03:45:39;;;;;;;34.63;20.60;;;;;;;;;;779982;178;919249;-64
2024/01/29 03:48:05;;;;;;;39.30;22.67;;;;;;;;;;781360;178;919625;-69
2024/01/29 03:50:31;;;;;;;32.60;18.83;;;;;;;;;;782347;178;919596;-69
2024/01/29 03:52:57;;;;;;;30.08;20.75;;;;;;;;;;780767;177;919485;-69
2024/01/29 03:55:23;;;;;;;28.63;17.93;;;;;;;;;;784098;178;914103;-69
2024/01/29 03:57:48;;;;;;;31.13;18.17;;;;;;;;;;783330;175;886879;-69
2024/01/29 04:00:18;;;;;;;34.90;22.00;;;;;;;;;;779098;178;920566;-68
2024/01/29 04:02:42;;;;;;;35.47;20.50;;;;;;;;;;778302;177;917494;-69
2024/01/29 04:05:07;;;;;;;37.60;21.37;;;;;;;;;;776055;180;936302;-70
2024/01/29 04:07:33;;;;;;;32.20;19.70;;;;;;;;;;782541;177;920830;-64
2024/01/29 04:09:59;;;;;;;35.05;18.58;;;;;;;;;;776288;178;918845;-69
2024/01/29 04:12:25;;;;;;;39.00;20.17;;;;;;;;;;783713;178;918129;-69
2024/01/29 04:14:51;;;;;;;33.87;20.17;;;;;;;;;;770472;178;1737265;-64
2024/01/29 04:17:17;;;;;;;42.03;22.10;;;;;;;;;;781747;178;917848;-64
2024/01/29 04:19:43;;;;;;;39.37;21.40;;;;;;;;;;784992;177;918014;-63
2024/01/29 04:22:09;;;;;;;31.37;20.83;;;;;;;;;;780135;177;919630;-71
2024/01/29 04:24:36;;;;;;;32.88;18.98;;;;;;;;;;778326;177;918292;-70
2024/01/29 04:27:01;;;;;;;35.45;20.45;;;;;;;;;;788735;177;625937;-64
2024/01/29 04:29:27;;;;;;;35.10;19.30;;;;;;;;;;782904;178;860933;-64
2024/01/29 04:31:53;;;;;;;35.67;18.77;;;;;;;;;;777587;177;919899;-68
2024/01/29 04:34:19;;;;;;;36.93;19.27;;;;;;;;;;779566;177;928752;-69
2024/01/29 04:36:45;;;;;;;40.67;19.80;;;;;;;;;;786435;177;920456;-69
2024/01/29 04:39:10;;;;;;;33.20;19.20;;;;;;;;;;783065;177;900418;-64
2024/01/29 04:41:36;;;;;;;28.13;19.47;;;;;;;;;;791139;175;613911;-64
2024/01/29 04:44:02;;;;;;;28.80;17.73;;;;;;;;;;790963;177;622024;-70
2024/01/29 04:46:28;;;;;;;31.17;19.53;;;;;;;;;;783176;177;618808;-69
2024/01/29 04:48:54;;;;;;;34.23;19.70;;;;;;;;;;781468;177;862304;-64
2024/01/29 04:51:20;;;;;;;32.17;19.20;;;;;;;;;;788031;177;920106;-65
2024/01/29 04:53:46;;;;;;;32.10;19.63;;;;;;;;;;780970;178;919545;-64
2024/01/29 04:56:11;;;;;;;33.67;18.73;;;;;;;;;;786037;177;919922;-70
2024/01/29 04:58:37;;;;;;;30.73;16.63;;;;;;;;;;784699;178;627726;-66
2024/01/29 05:01:03;;;;;;;34.93;18.10;;;;;;;;;;784513;179;620881;-70
2024/01/29 05:03:29;;;;;;;39.57;19.87;;;;;;;;;;779831;176;726830;-64
2024/01/29 05:05:55;;;;;;;33.13;21.27;;;;;;;;;;781405;178;636130;-69
2024/01/29 05:08:21;;;;;;;32.27;19.00;;;;;;;;;;789136;178;619946;-69
2024/01/29 05:10:46;;;;;;;31.43;17.80;;;;;;;;;;783828;178;618326;-69
2024/01/29 05:13:12;;;;;;;28.53;19.10;;;;;;;;;;783113;177;647069;-70
2024/01/29 05:15:38;;;;;;;44.27;22.03;;;;;;;;;;783960;178;703560;-64
2024/01/29 05:18:04;;;;;;;37.10;22.23;;;;;;;;;;790409;178;627968;-64
2024/01/29 05:20:30;;;;;;;33.97;20.73;;;;;;;;;;781799;179;628386;-64
2024/01/29 05:22:56;;;;;;;30.30;19.40;;;;;;;;;;784257;179;915813;-64
2024/01/29 05:25:21;;;;;;;34.53;19.40;;;;;;;;;;781531;178;812432;-70
2024/01/29 05:27:47;;;;;;;37.57;20.90;;;;;;;;;;785095;177;814020;-70
2024/01/29 05:30:13;;;;;;;32.70;21.47;;;;;;;;;;783569;176;921647;-62
2024/01/29 05:32:39;;;;;;;29.63;21.27;;;;;;;;;;779417;178;814375;-70
2024/01/29 05:35:05;;;;;;;54.80;30.40;;;;;;;;;;784480;177;814193;-64
2024/01/29 05:37:33;;;;;;;61.93;37.20;;;;;;;;;;781066;178;631585;-64
2024/01/29 05:39:57;;;;;;;54.83;26.43;;;;;;;;;;784415;178;635918;-62
2024/01/29 05:42:23;;;;;;;36.63;23.70;;;;;;;;;;779551;177;633914;-69
2024/01/29 05:44:49;;;;;;;45.73;24.07;;;;;;;;;;786428;176;629259;-65
2024/01/29 05:47:15;;;;;;;40.83;24.67;;;;;;;;;;787544;177;627941;-64
2024/01/29 05:49:40;;;;;;;34.57;23.20;;;;;;;;;;781435;176;618145;-65
2024/01/29 05:52:06;;;;;;;39.20;24.27;;;;;;;;;;783255;178;628863;-65
2024/01/29 05:54:32;;;;;;;36.97;24.30;;;;;;;;;;787113;175;633206;-64
2024/01/29 05:56:58;;;;;;;64.77;37.97;;;;;;;;;;779930;176;622572;-67
2024/01/29 05:59:24;;;;;;;45.83;27.63;;;;;;;;;;780182;177;633329;-70
2024/01/29 06:01:49;;;;;;;45.87;27.83;;;;;;;;;;783700;178;635392;-71
2024/01/29 06:04:15;;;;;;;43.83;25.60;;;;;;;;;;786824;175;630090;-64
2024/01/29 06:06:43;;;;;;;37.67;24.60;;;;;;;;;;790915;177;641194;-70
2024/01/29 06:09:09;;;;;;;30.52;21.73;;;;;;;;;;785097;176;913977;-64
2024/01/29 06:11:34;;;;;;;41.30;22.47;;;;;;;;;;784449;179;617435;-63
2024/01/29 06:13:59;;;;;;;38.08;23.23;;;;;;;;;;782246;178;912340;-63
2024/01/29 06:16:25;;;;;;;35.30;22.97;;;;;;;;;;783274;178;921516;-64
2024/01/29 06:18:50;;;;;;;38.80;22.70;;;;;;;;;;782235;177;914370;-64
2024/01/29 06:21:16;;;;;;;31.23;21.03;;;;;;;;;;781264;178;835611;-64
2024/01/29 06:23:42;;;;;;;33.07;22.43;;;;;;;;;;774859;178;918267;-69
2024/01/29 06:26:08;;;;;;;38.30;23.57;;;;;;;;;;781032;178;919411;-69
2024/01/29 06:28:34;;;;;;;30.73;20.80;;;;;;;;;;785871;178;918889;-69
2024/01/29 06:31:00;;;;;;;33.93;21.23;;;;;;;;;;775481;178;920852;-63
2024/01/29 06:33:25;;;;;;;35.38;21.20;;;;;;;;;;780134;178;922405;-69
2024/01/29 06:35:51;;;;;;;40.80;25.17;;;;;;;;;;785945;177;818183;-63
2024/01/29 06:38:17;;;;;;;35.00;23.27;;;;;;;;;;777965;178;1020324;-63
2024/01/29 06:40:43;;;;;;;35.50;21.03;;;;;;;;;;780531;178;918300;-69
2024/01/29 06:43:09;;;;;;;38.03;22.05;;;;;;;;;;784348;178;917521;-69
2024/01/29 06:45:35;;;;;;;34.70;20.63;;;;;;;;;;780028;178;918836;-69
2024/01/29 06:48:01;;;;;;;34.67;21.67;;;;;;;;;;777798;178;918453;-63
2024/01/29 06:50:26;;;;;;;32.60;20.13;;;;;;;;;;783442;178;917630;-63
2024/01/29 06:52:52;;;;;;;31.40;18.80;;;;;;;;;;783082;177;918230;-64
2024/01/29 06:55:20;;;;;;;31.33;18.70;;;;;;;;;;775923;177;919112;-63
2024/01/29 06:57:44;;;;;;;26.93;17.67;;;;;;;;;;780429;176;919459;-64
2024/01/29 07:00:10;;;;;;;30.07;18.50;;;;;;;;;;779668;178;919205;-63
2024/01/29 07:02:36;;;;;;;25.17;16.53;;;;;;;;;;775840;175;918958;-63
2024/01/29 07:05:02;;;;;;;31.23;18.90;;;;;;;;;;780980;178;910894;-68
2024/01/29 07:07:28;;;;;;;31.20;20.23;;;;;;;;;;787917;177;816826;-64
2024/01/29 07:09:55;;;;;;;27.37;17.47;;;;;;;;;;776968;177;919477;-64
2024/01/29 07:12:20;;;;;;;31.37;17.95;;;;;;;;;;787078;177;927191;-69
2024/01/29 07:14:46;;;;;;;26.60;16.33;;;;;;;;;;787202;177;917184;-68
2024/01/29 07:17:12;;;;;;;30.63;19.30;;;;;;;;;;774671;178;918479;-70
2024/01/29 07:19:38;;;;;;;28.00;19.27;;;;;;;;;;781191;177;920582;-63
2024/01/29 07:22:05;;;;;;;30.33;17.57;;;;;;;;;;778643;178;918601;-63
2024/01/29 07:24:31;;;;;;;33.27;19.00;;;;;;;;;;789337;177;919609;-68
2024/01/29 07:26:58;;;;;;;30.83;18.43;;;;;;;;;;778714;177;919028;-62
2024/01/29 07:29:23;;;;;;;33.30;19.73;;;;;;;;;;781244;178;907936;-68
2024/01/29 07:31:52;;;;;;;38.10;19.00;;;;;;;;;;786728;177;921493;-68
2024/01/29 07:34:14;;;;;;;31.00;21.75;;;;;;;;;;779800;177;919297;-68
2024/01/29 07:36:40;;;;;;;35.80;19.63;;;;;;;;;;775280;178;897673;-64
2024/01/29 07:39:06;;;;;;;30.10;17.30;;;;;;;;;;785166;178;799540;-66
2024/01/29 07:41:32;;;;;;;34.00;19.37;;;;;;;;;;777151;178;919304;-69
2024/01/29 07:43:58;;;;;;;31.60;16.57;;;;;;;;;;774476;177;919053;-70
2024/01/29 07:46:24;;;;;;;36.80;18.30;;;;;;;;;;782845;178;816733;-73
2024/01/29 07:48:49;;;;;;;27.73;17.10;;;;;;;;;;784533;179;921552;-68
2024/01/29 07:51:15;;;;;;;29.23;17.63;;;;;;;;;;784674;176;934742;-66
2024/01/29 07:53:41;;;;;;;27.50;15.63;;;;;;;;;;779116;177;1021479;-68
2024/01/29 07:56:07;;;;;;;29.97;15.33;;;;;;;;;;783021;178;817750;-68
2024/01/29 07:58:33;;;;;;;27.63;16.10;;;;;;;;;;777926;175;917893;-67
2024/01/29 08:00:59;;;;;;;30.73;16.00;;;;;;;;;;776781;178;813064;-68
2024/01/29 08:03:25;;;;;;;24.57;14.57;;;;;;;;;;784209;177;917358;-68
2024/01/29 08:05:50;;;;;;;29.90;14.47;;;;;;;;;;779308;178;922856;-67
2024/01/29 08:08:16;;;;;;;22.77;13.67;;;;;;;;;;782724;178;918536;-66
2024/01/29 08:10:42;;;;;;;27.37;15.03;;;;;;;;;;790383;176;746828;-71
2024/01/29 08:13:08;;;;;;;26.80;14.50;;;;;;;;;;781529;177;820576;-69
2024/01/29 08:15:34;;;;;;;25.90;14.03;;;;;;;;;;776959;178;919012;-65
2024/01/29 08:18:00;;;;;;;22.60;14.20;;;;;;;;;;786255;176;944715;-69
2024/01/29 08:20:26;;;;;;;27.25;16.02;;;;;;;;;;787836;176;916020;-70
2024/01/29 08:22:52;;;;;;;25.30;16.03;;;;;;;;;;775261;179;918761;-69
2024/01/29 08:25:17;;;;;;;28.58;16.15;;;;;;;;;;781864;177;919045;-69
2024/01/29 08:27:43;;;;;;;21.03;12.50;;;;;;;;;;786036;175;919290;-66
2024/01/29 08:30:09;;;;;;;20.90;13.40;;;;;;;;;;778238;178;917563;-65
2024/01/29 08:32:35;;;;;;;23.10;12.93;;;;;;;;;;779548;176;916738;-70
2024/01/29 08:35:01;;;;;;;20.30;13.80;;;;;;;;;;784186;177;918120;-63
2024/01/29 08:37:27;;;;;;;19.83;13.93;;;;;;;;;;781414;178;914647;-70
2024/01/29 08:39:52;;;;;;;22.30;14.13;;;;;;;;;;786242;175;915568;-71
2024/01/29 08:42:19;;;;;;;22.33;13.53;;;;;;;;;;791514;177;920829;-64
2024/01/29 08:44:45;;;;;;;21.90;13.27;;;;;;;;;;786291;176;889800;-64
2024/01/29 08:47:10;;;;;;;19.77;13.17;;;;;;;;;;780578;176;918586;-63
2024/01/29 08:49:36;;;;;;;17.50;12.43;;;;;;;;;;775715;177;918931;-64
2024/01/29 08:52:02;;;;;;;19.30;12.70;;;;;;;;;;786240;178;918968;-64
2024/01/29 08:54:28;;;;;;;22.20;13.67;;;;;;;;;;779077;178;917933;-69
2024/01/29 08:56:54;;;;;;;19.63;12.63;;;;;;;;;;778204;178;917526;-70
2024/01/29 08:59:21;;;;;;;25.47;12.60;;;;;;;;;;787556;178;919421;-68
2024/01/29 09:01:45;;;;;;;21.73;13.97;;;;;;;;;;780512;178;920223;-69
2024/01/29 09:04:12;;;;;;;21.60;14.40;;;;;;;;;;777953;178;918811;-65
2024/01/29 09:06:37;;;;;;;18.17;12.00;;;;;;;;;;785569;177;817711;-70
2024/01/29 09:09:03;;;;;;;18.27;11.00;;;;;;;;;;777994;177;816633;-66
2024/01/29 09:11:29;;;;;;;19.37;13.33;;;;;;;;;;778407;178;917419;-65
2024/01/29 09:13:55;;;;;;;22.87;13.35;;;;;;;;;;777778;178;931379;-68
2024/01/29 09:16:20;;;;;;;19.70;13.43;;;;;;;;;;787913;178;918026;-70
2024/01/29 09:18:46;;;;;;;23.08;14.48;;;;;;;;;;783668;176;917760;-65
2024/01/29 09:21:12;;;;;;;20.50;12.70;;;;;;;;;;776714;179;918141;-64
2024/01/29 09:23:38;;;;;;;20.70;15.07;;;;;;;;;;786286;177;819607;-64
2024/01/29 09:26:04;;;;;;;24.97;15.30;;;;;;;;;;777520;178;919034;-65
2024/01/29 09:28:30;;;;;;;22.70;13.93;;;;;;;;;;779676;177;920097;-64
2024/01/29 09:30:56;;;;;;;17.60;11.90;;;;;;;;;;786712;177;904391;-63
2024/01/29 09:33:21;;;;;;;18.10;11.87;;;;;;;;;;785321;174;941720;-64
2024/01/29 09:35:48;;;;;;;17.45;12.32;;;;;;;;;;780515;177;1021546;-69
2024/01/29 09:38:14;;;;;;;24.65;14.23;;;;;;;;;;786213;177;918363;-69
2024/01/29 09:40:40;;;;;;;23.97;12.53;;;;;;;;;;791181;174;919455;-64
2024/01/29 09:43:05;;;;;;;18.00;12.30;;;;;;;;;;784219;176;919589;-69
2024/01/29 09:45:31;;;;;;;17.13;10.90;;;;;;;;;;780726;178;883820;-69
2024/01/29 09:47:57;;;;;;;17.17;11.17;;;;;;;;;;778028;175;923319;-63
2024/01/29 09:50:24;;;;;;;22.80;10.20;;;;;;;;;;778666;177;917668;-64
2024/01/29 09:52:50;;;;;;;14.70;9.10;;;;;;;;;;777605;177;856285;-63
2024/01/29 09:55:15;;;;;;;18.10;11.23;;;;;;;;;;783175;178;917350;-68
2024/01/29 09:57:41;;;;;;;15.27;10.00;;;;;;;;;;780553;177;918611;-64
2024/01/29 10:00:08;;;;;;;22.80;11.47;;;;;;;;;;780878;177;819477;-68
2024/01/29 10:02:35;;;;;;;17.37;10.33;;;;;;;;;;790602;177;918759;-69
2024/01/29 10:05:01;;;;;;;15.90;11.00;;;;;;;;;;785353;177;917470;-68
2024/01/29 10:07:27;;;;;;;18.40;10.97;;;;;;;;;;776593;178;919207;-68
2024/01/29 10:09:53;;;;;;;17.43;10.23;;;;;;;;;;780589;178;845000;-64
2024/01/29 10:12:26;;;;;;;16.33;10.83;;;;;;;;;;785445;176;865100;-65
2024/01/29 10:14:49;;;;;;;15.73;10.17;;;;;;;;;;784473;177;919180;-64
2024/01/29 10:17:15;;;;;;;13.77;9.77;;;;;;;;;;779348;176;918145;-68
2024/01/29 10:19:43;;;;;;;16.87;10.40;;;;;;;;;;783702;178;918352;-64
2024/01/29 10:22:10;;;;;;;17.30;9.00;;;;;;;;;;778459;176;921196;-67
2024/01/29 10:24:35;;;;;;;17.67;9.10;;;;;;;;;;779662;178;915136;-68
2024/01/29 10:27:01;;;;;;;14.85;8.40;;;;;;;;;;779420;178;817033;-65
2024/01/29 10:29:27;;;;;;;13.80;9.20;;;;;;;;;;780858;178;917154;-65
2024/01/29 10:31:53;;;;;;;13.20;9.20;;;;;;;;;;779306;178;914641;-65
2024/01/29 10:34:21;;;;;;;13.17;9.43;;;;;;;;;;782724;177;933397;-67
2024/01/29 10:36:45;;;;;;;18.93;8.97;;;;;;;;;;783189;177;863661;-65
2024/01/29 10:39:10;;;;;;;17.33;9.63;;;;;;;;;;779372;178;920246;-65
2024/01/29 10:41:36;;;;;;;13.30;8.27;;;;;;;;;;784020;176;1016609;-65
2024/01/29 10:44:02;;;;;;;14.93;9.43;;;;;;;;;;786187;177;919320;-64
2024/01/29 10:46:28;;;;;;;13.57;8.33;;;;;;;;;;778595;177;862713;-67
2024/01/29 10:48:54;;;;;;;19.53;9.87;;;;;;;;;;779845;177;884053;-66
2024/01/29 10:51:20;;;;;;;14.33;9.37;;;;;;;;;;786313;178;849283;-68
2024/01/29 10:53:46;;;;;;;17.87;10.80;;;;;;;;;;786837;177;920019;-64
2024/01/29 10:56:12;;;;;;;16.63;11.03;;;;;;;;;;779639;177;823880;-64
2024/01/29 10:58:37;;;;;;;15.47;10.47;;;;;;;;;;783914;176;1020849;-67
2024/01/29 11:01:03;;;;;;;19.50;10.05;;;;;;;;;;785589;178;816629;-68
2024/01/29 11:03:29;;;;;;;24.53;10.33;;;;;;;;;;782826;178;816816;-64
2024/01/29 11:05:56;;;;;;;18.50;10.50;;;;;;;;;;780916;178;913467;-67
2024/01/29 11:08:24;;;;;;;20.67;12.33;;;;;;;;;;782394;178;813199;-69
2024/01/29 11:10:47;;;;;;;18.73;10.57;;;;;;;;;;774041;178;919515;-65
2024/01/29 11:13:13;;;;;;;13.57;9.35;;;;;;;;;;781075;177;817554;-67
2024/01/29 11:15:41;;;;;;;15.57;10.30;;;;;;;;;;779686;177;925885;-65
2024/01/29 11:18:05;;;;;;;12.90;8.50;;;;;;;;;;782525;179;919792;-66
2024/01/29 11:20:32;;;;;;;18.17;11.23;;;;;;;;;;787892;175;827952;-69
2024/01/29 11:22:58;;;;;;;18.23;10.10;;;;;;;;;;779068;180;918088;-65
2024/01/29 11:25:23;;;;;;;16.43;10.13;;;;;;;;;;783168;178;916698;-67
2024/01/29 11:27:49;;;;;;;18.00;10.10;;;;;;;;;;780316;177;918917;-65
2024/01/29 11:30:18;;;;;;;18.03;12.77;;;;;;;;;;782540;177;919992;-67
2024/01/29 11:32:43;;;;;;;22.33;13.87;;;;;;;;;;783055;177;815979;-64
2024/01/29 11:35:10;;;;;;;21.40;11.90;;;;;;;;;;781966;177;919895;-65
2024/01/29 11:37:36;;;;;;;19.60;11.80;;;;;;;;;;786159;176;940114;-65
2024/01/29 11:40:02;;;;;;;19.10;11.53;;;;;;;;;;779499;178;870128;-64
2024/01/29 11:42:27;;;;;;;17.55;11.00;;;;;;;;;;785388;178;914890;-66
2024/01/29 11:44:53;;;;;;;22.50;13.07;;;;;;;;;;777410;178;918819;-65
2024/01/29 11:47:21;;;;;;;16.48;11.15;;;;;;;;;;778601;178;1021513;-67
2024/01/29 11:49:45;;;;;;;15.10;9.97;;;;;;;;;;784259;178;919996;-67
2024/01/29 11:52:11;;;;;;;20.20;10.17;;;;;;;;;;781044;177;902919;-65
2024/01/29 11:54:36;;;;;;;18.23;10.43;;;;;;;;;;783589;176;919679;-67
2024/01/29 11:57:02;;;;;;;20.60;12.20;;;;;;;;;;786715;176;919309;-68
2024/01/29 11:59:28;;;;;;;18.67;11.70;;;;;;;;;;781763;177;819151;-67
2024/01/29 12:01:54;;;;;;;16.55;11.85;;;;;;;;;;778550;177;877375;-64
2024/01/29 12:04:20;;;;;;;16.67;10.75;;;;;;;;;;787176;177;876587;-64
2024/01/29 12:06:46;;;;;;;20.37;10.60;;;;;;;;;;785251;177;920052;-66
2024/01/29 12:09:12;;;;;;;17.10;10.40;;;;;;;;;;778911;177;936584;-63
2024/01/29 12:11:38;;;;;;;19.50;11.40;;;;;;;;;;776968;178;919626;-66
2024/01/29 12:14:04;;;;;;;18.70;10.03;;;;;;;;;;783817;178;919860;-64
2024/01/29 12:16:30;;;;;;;18.30;11.75;;;;;;;;;;782193;178;919330;-67
2024/01/29 12:18:55;;;;;;;21.27;11.70;;;;;;;;;;779600;178;922651;-67
2024/01/29 12:21:21;;;;;;;17.93;12.10;;;;;;;;;;781704;177;840416;-68
2024/01/29 12:23:47;;;;;;;18.53;11.40;;;;;;;;;;779361;177;918902;-66
2024/01/29 12:26:13;;;;;;;19.17;12.03;;;;;;;;;;776713;179;919566;-66
2024/01/29 12:28:39;;;;;;;19.60;10.90;;;;;;;;;;782178;178;917602;-65
2024/01/29 12:31:06;;;;;;;16.43;10.57;;;;;;;;;;781416;178;912960;-65
2024/01/29 12:33:31;;;;;;;18.77;12.07;;;;;;;;;;775727;177;920270;-68
2024/01/29 12:35:57;;;;;;;16.73;11.50;;;;;;;;;;778374;178;920167;-65
2024/01/29 12:38:23;;;;;;;19.27;10.73;;;;;;;;;;789900;177;1028623;-68
2024/01/29 12:40:49;;;;;;;18.43;10.90;;;;;;;;;;784020;177;638143;-67
2024/01/29 12:43:15;;;;;;;16.77;9.90;;;;;;;;;;778883;178;921244;-64
2024/01/29 12:45:44;;;;;;;19.73;11.20;;;;;;;;;;786375;177;890380;-66
2024/01/29 12:48:08;;;;;;;20.93;10.53;;;;;;;;;;780427;178;917877;-65
2024/01/29 12:50:34;;;;;;;20.20;11.50;;;;;;;;;;779163;178;921875;-64
2024/01/29 12:53:00;;;;;;;18.63;12.10;;;;;;;;;;781174;178;914594;-66
2024/01/29 12:55:26;;;;;;;20.63;12.73;;;;;;;;;;777992;178;915442;-65
2024/01/29 12:57:51;;;;;;;15.37;11.23;;;;;;;;;;781705;178;798214;-66
2024/01/29 13:00:17;;;;;;;20.33;10.90;;;;;;;;;;780502;178;916474;-68
2024/01/29 13:02:43;;;;;;;19.40;11.13;;;;;;;;;;787619;177;814155;-66
2024/01/29 13:05:09;;;;;;;17.77;10.47;;;;;;;;;;780458;176;922503;-68
2024/01/29 13:07:35;;;;;;;24.10;12.10;;;;;;;;;;783882;177;814991;-68
2024/01/29 13:10:03;;;;;;;18.50;10.23;;;;;;;;;;785763;177;920848;-68
2024/01/29 13:12:27;;;;;;;17.20;10.52;;;;;;;;;;787974;175;905506;-68
2024/01/29 13:14:52;;;;;;;18.40;11.17;;;;;;;;;;782597;178;919891;-67
2024/01/29 13:17:18;;;;;;;19.63;11.43;;;;;;;;;;783493;178;916416;-68
2024/01/29 13:19:44;;;;;;;17.00;10.80;;;;;;;;;;782210;178;918945;-66
2024/01/29 13:22:10;;;;;;;16.23;10.97;;;;;;;;;;778303;178;817762;-65
2024/01/29 13:24:36;;;;;;;22.07;11.97;;;;;;;;;;785378;178;917471;-66
2024/01/29 13:27:02;;;;;;;19.83;11.40;;;;;;;;;;784082;177;911631;-66
2024/01/29 13:29:27;;;;;;;18.10;10.40;;;;;;;;;;777576;178;917717;-66
2024/01/29 13:31:53;;;;;;;21.67;11.93;;;;;;;;;;781597;177;918624;-66
2024/01/29 13:34:20;;;;;;;26.80;12.27;;;;;;;;;;788011;177;935707;-67
2024/01/29 13:36:46;;;;;;;18.97;12.00;;;;;;;;;;777572;178;918554;-65
2024/01/29 13:39:11;;;;;;;15.37;10.27;;;;;;;;;;776362;178;918716;-66
2024/01/29 13:41:37;;;;;;;18.53;11.10;;;;;;;;;;781403;178;917967;-66
2024/01/29 13:44:04;;;;;;;18.10;10.70;;;;;;;;;;785226;178;830620;-65
2024/01/29 13:46:28;;;;;;;19.80;11.80;;;;;;;;;;782831;178;915935;-66
2024/01/29 13:48:54;;;;;;;16.48;10.80;;;;;;;;;;781415;177;917574;-66
2024/01/29 13:51:20;;;;;;;15.83;10.57;;;;;;;;;;780279;178;1116258;-64
2024/01/29 13:53:46;;;;;;;16.17;10.83;;;;;;;;;;775477;178;917815;-65
2024/01/29 13:56:12;;;;;;;19.70;13.00;;;;;;;;;;776872;178;916419;-67